sensor_id;sensor_type;location;lat;lon;timestamp;pressure;altitude;pressure_sealevel;temperature;humidity
27864;BME280;15980;51.092;13.916;2023-02-19T00:04:03;98553.00;;;8.58;98.97
27864;BME280;15980;51.092;13.916;2023-02-19T00:14:04;98526.59;;;8.62;98.18
27864;BME280;15980;51.092;13.916;2023-02-19T00:24:06;98528.06;;;8.59;98.07
27864;BME280;15980;51.092;13.916;2023-02-19T00:34:08;98522.44;;;8.56;97.83
27864;BME280;15980;51.092;13.916;2023-02-19T00:44:09;98510.84;;;8.59;96.73
27864;BME280;15980;51.092;13.916;2023-02-19T00:54:10;98503.25;;;8.64;96.30
27864;BME280;15980;51.092;13.916;2023-02-19T01:04:11;98499.09;;;8.58;95.38
27864;BME280;15980;51.092;13.916;2023-02-19T01:14:12;98481.97;;;8.49;95.69
27864;BME280;15980;51.092;13.916;2023-02-19T01:24:12;98475.38;;;8.50;95.77
27864;BME280;15980;51.092;13.916;2023-02-19T01:34:12;98458.75;;;8.55;95.35
27864;BME280;15980;51.092;13.916;2023-02-19T01:54:16;98414.59;;;8.65;94.69
27864;BME280;15980;51.092;13.916;2023-02-19T02:04:17;98411.53;;;8.67;94.74
27864;BME280;15980;51.092;13.916;2023-02-19T02:14:21;98408.28;;;8.53;96.56
27864;BME280;15980;51.092;13.916;2023-02-19T02:25:34;98393.75;;;8.40;98.66
27864;BME280;15980;51.092;13.916;2023-02-19T02:35:13;98381.06;;;8.35;100.00
27864;BME280;15980;51.092;13.916;2023-02-19T02:55:17;98348.66;;;8.25;100.00
27864;BME280;15980;51.092;13.916;2023-02-19T03:16:00;98331.94;;;7.97;100.00
27864;BME280;15980;51.092;13.916;2023-02-19T03:26:02;98328.09;;;7.98;100.00
27864;BME280;15980;51.092;13.916;2023-02-19T04:07:25;98283.66;;;7.89;100.00
27864;BME280;15980;51.092;13.916;2023-02-19T04:38:42;98240.28;;;7.87;100.00
27864;BME280;15980;51.092;13.916;2023-02-19T04:48:42;98250.78;;;7.98;100.00
27864;BME280;15980;51.092;13.916;2023-02-19T04:58:43;98247.47;;;7.92;100.00
27864;BME280;15980;51.092;13.916;2023-02-19T05:08:43;98249.94;;;7.85;100.00
27864;BME280;15980;51.092;13.916;2023-02-19T05:18:44;98255.44;;;7.76;100.00
27864;BME280;15980;51.092;13.916;2023-02-19T05:28:46;98266.22;;;7.73;100.00
27864;BME280;15980;51.092;13.916;2023-02-19T05:38:51;98265.97;;;7.66;100.00
27864;BME280;15980;51.092;13.916;2023-02-19T05:48:52;98264.84;;;7.67;100.00
27864;BME280;15980;51.092;13.916;2023-02-19T05:58:53;98261.50;;;7.61;100.00
27864;BME280;15980;51.092;13.916;2023-02-19T06:08:54;98275.88;;;7.49;100.00
27864;BME280;15980;51.092;13.916;2023-02-19T06:18:54;98281.13;;;7.54;100.00
27864;BME280;15980;51.092;13.916;2023-02-19T06:28:54;98292.56;;;7.48;100.00
27864;BME280;15980;51.092;13.916;2023-02-19T06:38:58;98300.06;;;7.60;100.00
27864;BME280;15980;51.092;13.916;2023-02-19T06:48:58;98318.13;;;7.73;100.00
27864;BME280;15980;51.092;13.916;2023-02-19T06:59:01;98313.47;;;7.73;100.00
27864;BME280;15980;51.092;13.916;2023-02-19T07:09:03;98342.03;;;7.76;100.00
27864;BME280;15980;51.092;13.916;2023-02-19T07:19:04;98363.66;;;7.60;100.00
27864;BME280;15980;51.092;13.916;2023-02-19T07:29:04;98407.69;;;6.77;100.00
27864;BME280;15980;51.092;13.916;2023-02-19T07:39:05;98426.16;;;6.63;100.00
27864;BME280;15980;51.092;13.916;2023-02-19T07:49:05;98452.22;;;6.21;100.00
27864;BME280;15980;51.092;13.916;2023-02-19T07:59:05;98472.66;;;6.01;100.00
27864;BME280;15980;51.092;13.916;2023-02-19T08:09:05;98494.91;;;5.94;100.00
27864;BME280;15980;51.092;13.916;2023-02-19T08:19:06;98511.50;;;5.84;98.98
27864;BME280;15980;51.092;13.916;2023-02-19T08:29:06;98546.00;;;4.99;100.00
27864;BME280;15980;51.092;13.916;2023-02-19T08:39:06;98575.88;;;4.77;100.00
27864;BME280;15980;51.092;13.916;2023-02-19T08:49:07;98596.09;;;4.85;100.00
27864;BME280;15980;51.092;13.916;2023-02-19T08:59:07;98619.78;;;5.07;100.00
27864;BME280;15980;51.092;13.916;2023-02-19T09:09:07;98671.28;;;4.89;100.00
27864;BME280;15980;51.092;13.916;2023-02-19T09:19:08;98705.28;;;3.99;100.00
27864;BME280;15980;51.092;13.916;2023-02-19T09:29:08;98731.59;;;4.31;100.00
27864;BME280;15980;51.092;13.916;2023-02-19T09:39:08;98763.19;;;3.95;99.39
27864;BME280;15980;51.092;13.916;2023-02-19T09:49:18;98781.28;;;3.99;96.19
27864;BME280;15980;51.092;13.916;2023-02-19T09:59:23;98789.59;;;4.40;94.92
27864;BME280;15980;51.092;13.916;2023-02-19T10:09:25;98809.75;;;4.99;91.65
27864;BME280;15980;51.092;13.916;2023-02-19T10:19:25;98830.81;;;5.49;88.76
27864;BME280;15980;51.092;13.916;2023-02-19T10:29:26;98858.75;;;5.27;89.22
27864;BME280;15980;51.092;13.916;2023-02-19T10:39:40;98868.13;;;4.56;89.78
27864;BME280;15980;51.092;13.916;2023-02-19T10:49:41;98885.09;;;5.13;89.41
27864;BME280;15980;51.092;13.916;2023-02-19T11:10:47;98916.88;;;5.45;86.87
27864;BME280;15980;51.092;13.916;2023-02-19T11:31:34;98954.88;;;5.03;88.05
27864;BME280;15980;51.092;13.916;2023-02-19T11:52:10;98970.41;;;5.03;82.37
27864;BME280;15980;51.092;13.916;2023-02-19T12:43:23;99010.09;;;5.36;80.25
27864;BME280;15980;51.092;13.916;2023-02-19T13:25:11;99052.19;;;5.58;74.09
27864;BME280;15980;51.092;13.916;2023-02-19T13:45:59;99063.88;;;5.26;72.48
27864;BME280;15980;51.092;13.916;2023-02-19T13:56:00;99068.13;;;5.32;73.21
27864;BME280;15980;51.092;13.916;2023-02-19T14:06:05;99083.88;;;5.16;71.38
27864;BME280;15980;51.092;13.916;2023-02-19T14:16:29;99080.91;;;4.75;72.50
27864;BME280;15980;51.092;13.916;2023-02-19T14:26:31;99098.00;;;4.57;72.07
27864;BME280;15980;51.092;13.916;2023-02-19T14:46:38;99119.69;;;4.14;73.05
27864;BME280;15980;51.092;13.916;2023-02-19T14:56:44;99117.84;;;4.09;73.59
27864;BME280;15980;51.092;13.916;2023-02-19T15:06:46;99141.88;;;4.21;73.98
27864;BME280;15980;51.092;13.916;2023-02-19T16:31:11;99175.63;;;3.81;77.00
27864;BME280;15980;51.092;13.916;2023-02-19T16:51:50;99245.06;;;3.53;77.98
27864;BME280;15980;51.092;13.916;2023-02-19T17:01:51;99259.19;;;3.45;78.81
27864;BME280;15980;51.092;13.916;2023-02-19T17:11:51;99273.66;;;3.30;79.32
27864;BME280;15980;51.092;13.916;2023-02-19T17:21:51;99286.44;;;3.20;79.93
27864;BME280;15980;51.092;13.916;2023-02-19T17:31:51;99297.06;;;3.11;80.32
27864;BME280;15980;51.092;13.916;2023-02-19T17:41:52;99310.34;;;2.97;81.19
27864;BME280;15980;51.092;13.916;2023-02-19T17:51:52;99323.94;;;2.92;81.29
27864;BME280;15980;51.092;13.916;2023-02-19T18:23:08;99353.13;;;3.26;79.81
27864;BME280;15980;51.092;13.916;2023-02-19T18:33:08;99358.59;;;3.10;80.64
27864;BME280;15980;51.092;13.916;2023-02-19T19:04:25;99368.94;;;2.78;82.03
27864;BME280;15980;51.092;13.916;2023-02-19T19:14:25;99366.53;;;2.71;81.78
27864;BME280;15980;51.092;13.916;2023-02-19T19:24:26;99377.09;;;2.63;82.67
27864;BME280;15980;51.092;13.916;2023-02-19T19:34:26;99378.69;;;2.33;83.55
27864;BME280;15980;51.092;13.916;2023-02-19T19:44:26;99379.78;;;2.17;85.25
27864;BME280;15980;51.092;13.916;2023-02-19T19:54:27;99386.78;;;2.08;86.27
27864;BME280;15980;51.092;13.916;2023-02-19T20:04:27;99381.88;;;1.95;86.55
27864;BME280;15980;51.092;13.916;2023-02-19T20:14:28;99387.81;;;1.81;87.20
27864;BME280;15980;51.092;13.916;2023-02-19T20:24:29;99392.06;;;1.72;87.90
27864;BME280;15980;51.092;13.916;2023-02-19T20:34:30;99381.78;;;1.64;88.35
27864;BME280;15980;51.092;13.916;2023-02-19T20:44:30;99375.56;;;1.64;88.97
27864;BME280;15980;51.092;13.916;2023-02-19T20:54:32;99378.19;;;1.48;89.35
27864;BME280;15980;51.092;13.916;2023-02-19T21:04:36;99408.19;;;1.42;90.25
27864;BME280;15980;51.092;13.916;2023-02-19T21:14:36;99419.28;;;1.40;90.72
27864;BME280;15980;51.092;13.916;2023-02-19T21:24:37;99422.88;;;1.61;91.16
27864;BME280;15980;51.092;13.916;2023-02-19T21:34:37;99437.59;;;1.80;90.19
27864;BME280;15980;51.092;13.916;2023-02-19T21:44:37;99444.91;;;1.85;90.63
27864;BME280;15980;51.092;13.916;2023-02-19T21:54:38;99450.63;;;1.94;90.00
27864;BME280;15980;51.092;13.916;2023-02-19T22:04:38;99449.53;;;1.89;89.95
27864;BME280;15980;51.092;13.916;2023-02-19T22:14:38;99436.16;;;1.68;89.94
27864;BME280;15980;51.092;13.916;2023-02-19T22:24:38;99421.78;;;1.62;91.11
27864;BME280;15980;51.092;13.916;2023-02-19T22:34:39;99411.22;;;1.55;90.59
27864;BME280;15980;51.092;13.916;2023-02-19T22:44:42;99411.50;;;1.54;91.17
27864;BME280;15980;51.092;13.916;2023-02-19T22:54:42;99404.47;;;1.58;91.16
27864;BME280;15980;51.092;13.916;2023-02-19T23:04:43;99398.09;;;1.84;91.51
27864;BME280;15980;51.092;13.916;2023-02-19T23:14:45;99370.25;;;2.14;89.92
27864;BME280;15980;51.092;13.916;2023-02-19T23:24:45;99360.56;;;2.18;90.14
27864;BME280;15980;51.092;13.916;2023-02-19T23:34:46;99366.25;;;2.47;89.69
27864;BME280;15980;51.092;13.916;2023-02-19T23:44:47;99356.78;;;2.70;89.35
27864;BME280;15980;51.092;13.916;2023-02-19T23:54:47;99356.19;;;2.89;88.64
